Time;durP1;ratioP1;P1;durP2;ratioP2;P2;SDS_P1;SDS_P2;PMS_P1;PMS_P2;Temp;Humidity;BMP_temperature;BMP_pressure;BME280_temperature;BME280_humidity;BME280_pressure;Samples;Min_cycle;Max_cycle;Signal;HPM_P1;HPM_P2
2023/06/02 00:01:04;;;;;;;19.00;10.30;;;;;;;12.96;59.90;100115.98;130107;1262;115211;-66
2023/06/02 00:04:17;;;;;;;20.70;10.90;;;;;;;12.90;60.10;100116.71;129696;1263;114831;-65
2023/06/02 00:07:19;;;;;;;13.90;9.90;;;;;;;12.85;60.32;100115.92;129699;1263;114801;-65
2023/06/02 00:10:21;;;;;;;15.80;11.90;;;;;;;12.81;60.48;100118.84;129445;1263;114878;-64
2023/06/02 00:13:25;;;;;;;16.60;10.50;;;;;;;12.77;60.56;100122.15;129797;1269;115261;-65
2023/06/02 00:16:28;;;;;;;18.20;12.00;;;;;;;12.72;60.77;100118.19;129633;1262;114700;-63
2023/06/02 00:19:30;;;;;;;21.50;12.30;;;;;;;12.66;60.90;100120.52;130135;1277;114907;-65
2023/06/02 00:22:37;;;;;;;19.50;13.30;;;;;;;12.60;61.21;100117.09;129714;1254;114686;-65
2023/06/02 00:25:40;;;;;;;17.20;11.00;;;;;;;12.54;61.14;100121.73;129517;1277;128493;-63
2023/06/02 00:28:42;;;;;;;19.30;10.70;;;;;;;12.49;61.34;100124.59;129769;1259;114850;-63
2023/06/02 00:31:45;;;;;;;15.20;11.70;;;;;;;12.43;61.43;100125.46;129805;1260;114679;-64
2023/06/02 00:34:47;;;;;;;23.00;14.70;;;;;;;12.38;61.34;100128.66;129829;1270;114754;-64
2023/06/02 00:37:50;;;;;;;19.10;13.10;;;;;;;12.30;61.36;100126.92;129943;1269;115169;-66
2023/06/02 00:40:52;;;;;;;19.00;11.50;;;;;;;12.25;61.60;100128.69;130144;1267;114728;-64
2023/06/02 00:43:54;;;;;;;18.40;12.60;;;;;;;12.18;61.70;100125.68;130226;1258;114907;-65
2023/06/02 00:46:57;;;;;;;17.70;11.70;;;;;;;12.12;61.85;100126.58;129918;1254;114737;-66
2023/06/02 00:49:59;;;;;;;18.40;11.70;;;;;;;12.05;62.01;100129.82;129586;1261;115392;-66
2023/06/02 00:53:02;;;;;;;18.20;11.60;;;;;;;11.99;62.26;100132.69;130131;1255;116941;-65
2023/06/02 00:56:05;;;;;;;15.00;11.30;;;;;;;11.93;62.25;100134.80;129977;1260;114732;-67
2023/06/02 00:59:08;;;;;;;16.90;11.80;;;;;;;11.87;62.41;100135.34;130221;1259;115092;-65
2023/06/02 01:02:10;;;;;;;19.00;11.30;;;;;;;11.82;62.31;100132.55;130131;1268;114820;-66
2023/06/02 01:05:14;;;;;;;19.80;11.30;;;;;;;11.77;62.97;100131.61;130023;1260;128226;-67
2023/06/02 01:08:17;;;;;;;15.90;11.30;;;;;;;11.71;63.00;100133.73;129936;1276;115215;-68
2023/06/02 01:11:20;;;;;;;16.70;11.50;;;;;;;11.65;63.25;100128.69;130020;1267;114830;-65
2023/06/02 01:14:22;;;;;;;16.20;11.60;;;;;;;11.61;63.13;100128.78;130158;1261;115012;-67
2023/06/02 01:17:30;;;;;;;15.50;10.80;;;;;;;11.56;63.51;100131.91;130209;1278;114807;-63
2023/06/02 01:20:32;;;;;;;16.50;10.30;;;;;;;11.51;63.59;100129.30;129956;1278;127912;-64
2023/06/02 01:23:36;;;;;;;16.50;10.80;;;;;;;11.47;63.35;100132.23;130258;1261;115487;-64
2023/06/02 01:26:38;;;;;;;14.10;10.80;;;;;;;11.42;64.03;100136.24;130310;1260;114747;-63
2023/06/02 01:29:41;;;;;;;19.10;12.20;;;;;;;11.37;63.91;100134.20;129874;1269;114783;-63
2023/06/02 01:33:11;;;;;;;22.50;11.60;;;;;;;11.32;63.85;100133.95;130056;1278;114954;-63
2023/06/02 01:36:14;;;;;;;24.60;12.40;;;;;;;11.27;64.31;100133.48;129869;1257;127817;-64
2023/06/02 01:39:16;;;;;;;20.60;11.50;;;;;;;11.22;64.45;100133.76;129860;1269;115084;-63
2023/06/02 01:42:19;;;;;;;14.20;10.20;;;;;;;11.19;64.48;100140.00;129898;1260;115150;-63
2023/06/02 01:45:22;;;;;;;17.00;11.30;;;;;;;11.15;64.70;100139.00;130293;1258;115066;-63
2023/06/02 01:48:27;;;;;;;23.70;11.40;;;;;;;11.13;64.81;100143.40;130303;1277;114817;-63
2023/06/02 01:51:29;;;;;;;20.40;11.40;;;;;;;11.09;64.99;100142.89;129742;1262;127504;-64
2023/06/02 01:54:31;;;;;;;17.90;10.50;;;;;;;11.05;65.01;100144.71;130212;1269;114738;-63
2023/06/02 01:57:34;;;;;;;21.80;10.50;;;;;;;11.02;65.25;100144.66;129880;1271;114632;-63
2023/06/02 02:00:37;;;;;;;18.10;10.20;;;;;;;10.98;65.18;100148.10;130153;1261;115376;-63
2023/06/02 02:03:39;;;;;;;21.80;11.30;;;;;;;10.95;65.54;100148.98;129837;1278;115263;-63
2023/06/02 02:06:45;;;;;;;17.40;10.40;;;;;;;10.92;65.69;100149.13;130330;1260;114702;-62
2023/06/02 02:09:47;;;;;;;15.80;9.90;;;;;;;10.89;65.42;100151.80;129720;1275;115020;-62
2023/06/02 02:12:49;;;;;;;16.20;9.00;;;;;;;10.85;65.53;100152.35;129767;1259;115111;-63
2023/06/02 02:15:51;;;;;;;17.10;10.90;;;;;;;10.81;65.73;100147.74;129906;1263;114818;-62
2023/06/02 02:18:57;;;;;;;15.00;10.10;;;;;;;10.78;65.81;100148.61;129889;1260;114722;-62
2023/06/02 02:21:59;;;;;;;;;;;;;;;10.75;66.01;100153.09;127681;1271;2623156;-63
2023/06/02 02:25:02;;;;;;;17.50;11.90;;;;;;;10.71;66.24;100154.73;129809;1257;114824;-63
2023/06/02 02:28:04;;;;;;;17.70;10.30;;;;;;;10.66;66.13;100154.61;129867;1266;114705;-63
2023/06/02 02:31:07;;;;;;;18.70;10.30;;;;;;;10.62;66.44;100150.35;129870;1256;114803;-63
2023/06/02 02:34:10;;;;;;;19.20;10.70;;;;;;;10.59;66.51;100153.54;129586;1278;128658;-65
2023/06/02 02:37:13;;;;;;;18.60;10.30;;;;;;;10.56;66.67;100152.45;129956;1267;114805;-65
2023/06/02 02:40:16;;;;;;;18.10;10.40;;;;;;;10.54;66.90;100149.00;129865;1260;114776;-63
2023/06/02 02:43:18;;;;;;;17.70;10.60;;;;;;;10.52;66.87;100152.12;129791;1259;115177;-64
2023/06/02 02:46:23;;;;;;;17.60;11.40;;;;;;;10.49;66.94;100154.05;130426;1254;114805;-63
2023/06/02 02:49:25;;;;;;;18.40;11.90;;;;;;;10.48;66.88;100155.73;130318;1277;114724;-65
2023/06/02 02:52:28;;;;;;;19.80;10.30;;;;;;;10.46;67.02;100158.48;130225;1260;115411;-64
2023/06/02 02:55:32;;;;;;;21.80;11.40;;;;;;;10.46;67.21;100158.48;130231;1260;114808;-65
2023/06/02 02:58:36;;;;;;;16.50;10.20;;;;;;;10.45;67.30;100154.23;130325;1258;114739;-65
2023/06/02 03:01:44;;;;;;;18.00;10.50;;;;;;;10.45;67.39;100155.13;129549;1254;114893;-63
2023/06/02 03:04:46;;;;;;;21.60;10.60;;;;;;;10.45;67.44;100156.55;130356;1260;114780;-64
2023/06/02 03:07:49;;;;;;;15.60;10.20;;;;;;;10.48;67.50;100159.30;129783;1270;114800;-63
2023/06/02 03:10:52;;;;;;;19.60;10.70;;;;;;;10.50;67.65;100158.30;130227;1254;114741;-63
2023/06/02 03:13:54;;;;;;;14.50;9.70;;;;;;;10.54;67.58;100163.64;130355;1254;114742;-64
2023/06/02 03:16:56;;;;;;;17.00;10.10;;;;;;;10.58;67.85;100164.48;129917;1260;114792;-64
2023/06/02 03:19:58;;;;;;;16.10;10.70;;;;;;;10.63;67.94;100168.16;129793;1269;114767;-65
2023/06/02 03:23:01;;;;;;;19.80;10.80;;;;;;;10.70;67.97;100176.77;130253;1271;114867;-66
2023/06/02 03:26:03;;;;;;;13.10;9.90;;;;;;;10.76;68.22;100178.52;130178;1261;114715;-66
2023/06/02 03:29:06;;;;;;;14.10;9.90;;;;;;;10.86;68.49;100180.39;129489;1274;128057;-64
2023/06/02 03:32:10;;;;;;;18.90;10.40;;;;;;;10.94;68.63;100184.39;130115;1260;114749;-65
2023/06/02 03:35:12;;;;;;;20.80;11.40;;;;;;;11.05;68.56;100186.34;129689;1263;114900;-64
2023/06/02 03:38:14;;;;;;;22.40;11.20;;;;;;;11.14;68.86;100186.55;130020;1264;114651;-65
2023/06/02 03:41:17;;;;;;;17.70;11.00;;;;;;;11.24;69.09;100185.65;130234;1256;114747;-66
2023/06/02 03:44:19;;;;;;;23.10;10.80;;;;;;;11.35;69.07;100187.25;130050;1261;114728;-66
2023/06/02 03:47:21;;;;;;;20.30;11.00;;;;;;;11.45;68.78;100188.46;130020;1260;114842;-66
2023/06/02 03:50:23;;;;;;;23.20;10.30;;;;;;;11.55;68.71;100186.84;130121;1276;114774;-66
2023/06/02 03:53:25;;;;;;;17.30;10.80;;;;;;;11.66;68.81;100188.37;130085;1262;115255;-66
2023/06/02 03:56:27;;;;;;;23.40;11.70;;;;;;;11.77;68.93;100194.07;130040;1258;114687;-64
2023/06/02 03:59:30;;;;;;;15.30;11.10;;;;;;;11.86;68.97;100199.80;130143;1260;114707;-63
2023/06/02 04:02:32;;;;;;;18.80;10.60;;;;;;;11.95;68.38;100201.98;130359;1261;114796;-65
2023/06/02 04:05:35;;;;;;;16.60;10.60;;;;;;;12.03;68.75;100207.98;130182;1278;114667;-63
2023/06/02 04:08:37;;;;;;;19.30;10.80;;;;;;;12.12;68.00;100204.65;129863;1257;114789;-65
2023/06/02 04:11:40;;;;;;;16.90;10.70;;;;;;;12.20;68.14;100205.77;129799;1259;115151;-63
2023/06/02 04:14:43;;;;;;;18.30;10.50;;;;;;;12.30;68.29;100205.59;129912;1267;114781;-65
2023/06/02 04:17:45;;;;;;;18.10;10.20;;;;;;;12.39;68.43;100207.52;129710;1260;114696;-66
2023/06/02 04:20:47;;;;;;;19.30;11.70;;;;;;;12.47;68.10;100206.89;130255;1256;114709;-66
2023/06/02 04:23:49;;;;;;;18.50;10.70;;;;;;;12.55;68.47;100208.02;130193;1270;114869;-65
2023/06/02 04:26:51;;;;;;;17.20;10.60;;;;;;;12.64;68.35;100211.11;130086;1261;114771;-67
2023/06/02 04:29:54;;;;;;;18.20;9.90;;;;;;;12.74;68.26;100207.80;130268;1257;114766;-66
2023/06/02 04:32:56;;;;;;;15.00;10.20;;;;;;;12.85;68.19;100214.16;130144;1258;115382;-67
2023/06/02 04:35:58;;;;;;;19.30;10.40;;;;;;;12.98;68.08;100217.82;129896;1261;115639;-64
2023/06/02 04:39:00;;;;;;;13.90;9.40;;;;;;;13.16;68.11;100213.49;130190;1278;114733;-66
2023/06/02 04:42:03;;;;;;;16.80;9.30;;;;;;;13.38;68.11;100213.80;130201;1258;114799;-65
2023/06/02 04:45:13;;;;;;;21.60;9.70;;;;;;;13.61;67.80;100210.59;129821;1261;114898;-64
2023/06/02 04:48:15;;;;;;;18.40;9.20;;;;;;;13.87;67.89;100211.58;129791;1274;114855;-64
2023/06/02 04:51:17;;;;;;;18.00;9.30;;;;;;;14.17;67.65;100210.58;130160;1262;115253;-64
2023/06/02 04:54:20;;;;;;;18.70;9.40;;;;;;;14.50;67.41;100213.45;130168;1258;116360;-66
2023/06/02 04:57:22;;;;;;;19.40;9.80;;;;;;;14.87;67.21;100215.77;129989;1256;115149;-66
2023/06/02 05:00:24;;;;;;;13.10;8.80;;;;;;;15.40;66.87;100215.52;130121;1254;115168;-66
2023/06/02 05:03:26;;;;;;;15.70;8.20;;;;;;;16.18;66.77;100209.35;130272;1260;114698;-65
2023/06/02 05:06:28;;;;;;;14.70;7.90;;;;;;;17.21;66.05;100203.90;130132;1254;114734;-65
2023/06/02 05:09:30;;;;;;;18.00;8.30;;;;;;;18.22;64.86;100201.55;130264;1255;114717;-64
2023/06/02 05:12:32;;;;;;;16.10;8.20;;;;;;;19.23;63.56;100208.95;130260;1260;114819;-66
2023/06/02 05:15:34;;;;;;;16.80;7.80;;;;;;;20.22;62.23;100202.73;130152;1258;128557;-64
2023/06/02 05:18:37;;;;;;;13.00;7.70;;;;;;;21.15;60.64;100202.95;130160;1256;114830;-66
2023/06/02 05:21:39;;;;;;;14.40;8.30;;;;;;;21.96;58.80;100203.20;130285;1258;115245;-65
2023/06/02 05:24:41;;;;;;;17.50;7.30;;;;;;;22.74;57.85;100204.88;129907;1263;114792;-67
2023/06/02 05:27:43;;;;;;;11.20;7.00;;;;;;;23.53;56.27;100209.98;130138;1254;114804;-66
2023/06/02 05:30:45;;;;;;;17.30;8.00;;;;;;;24.23;54.84;100213.16;130359;1260;114654;-67
2023/06/02 05:33:47;;;;;;;11.70;6.70;;;;;;;24.89;53.73;100207.62;130062;1254;114706;-67
2023/06/02 05:36:49;;;;;;;11.20;6.40;;;;;;;25.54;52.50;100210.74;130219;1277;115391;-67
2023/06/02 05:39:52;;;;;;;11.80;6.60;;;;;;;26.00;50.70;100209.49;130217;1259;114712;-67
2023/06/02 05:42:55;;;;;;;12.00;6.50;;;;;;;26.33;49.65;100212.08;130179;1258;115193;-66
2023/06/02 05:45:57;;;;;;;8.60;4.70;;;;;;;26.69;48.87;100216.08;130153;1254;115392;-64
2023/06/02 05:48:59;;;;;;;11.20;5.10;;;;;;;27.08;47.42;100219.29;130201;1260;114779;-67
2023/06/02 05:52:01;;;;;;;12.60;5.30;;;;;;;27.43;46.50;100218.77;129995;1261;115219;-65
2023/06/02 05:55:03;;;;;;;9.40;5.10;;;;;;;27.80;45.60;100220.28;130122;1258;115435;-70
2023/06/02 05:58:05;;;;;;;12.60;5.30;;;;;;;28.18;44.50;100224.55;130001;1258;115167;-67
2023/06/02 06:01:09;;;;;;;9.30;4.70;;;;;;;28.53;43.67;100225.69;130224;1258;114701;-68
2023/06/02 06:04:11;;;;;;;10.90;5.50;;;;;;;28.68;42.55;100228.13;129980;1264;115162;-67
2023/06/02 06:07:13;;;;;;;9.60;3.80;;;;;;;28.87;41.55;100226.09;130049;1261;114786;-67
2023/06/02 06:10:15;;;;;;;8.90;4.00;;;;;;;28.94;40.19;100225.77;130168;1277;115328;-69
2023/06/02 06:13:17;;;;;;;6.90;3.10;;;;;;;28.89;39.66;100224.06;130141;1277;114798;-69
2023/06/02 06:16:20;;;;;;;6.10;3.20;;;;;;;28.98;38.77;100220.15;130146;1259;114812;-66
2023/06/02 06:19:23;;;;;;;8.80;3.10;;;;;;;28.97;37.81;100223.54;130131;1258;114720;-67
2023/06/02 06:22:25;;;;;;;8.00;3.80;;;;;;;28.90;37.51;100225.20;130220;1258;114724;-67
2023/06/02 06:25:28;;;;;;;9.50;3.30;;;;;;;28.82;37.10;100230.33;130140;1265;114841;-67
2023/06/02 06:28:30;;;;;;;8.20;3.80;;;;;;;28.75;36.77;100234.33;130197;1273;115182;-64
2023/06/02 06:31:32;;;;;;;9.40;3.70;;;;;;;28.49;36.57;100234.09;129844;1255;114857;-68
2023/06/02 06:34:34;;;;;;;11.80;4.00;;;;;;;28.37;36.44;100235.77;130058;1278;114704;-68
2023/06/02 06:37:38;;;;;;;8.70;3.70;;;;;;;28.09;36.05;100238.12;130065;1271;115315;-68
2023/06/02 06:40:40;;;;;;;12.10;4.30;;;;;;;27.78;35.89;100238.43;130178;1270;114798;-70
2023/06/02 06:43:42;;;;;;;7.70;3.70;;;;;;;27.68;36.00;100236.60;130050;1274;114791;-68
2023/06/02 06:46:44;;;;;;;10.10;3.40;;;;;;;27.74;35.99;100239.02;130099;1258;114787;-65
2023/06/02 06:49:46;;;;;;;9.60;3.90;;;;;;;27.94;35.63;100238.97;130114;1260;115237;-68
2023/06/02 06:52:50;;;;;;;11.90;4.20;;;;;;;27.96;35.05;100242.09;130168;1261;114806;-69
2023/06/02 06:55:52;;;;;;;14.10;3.90;;;;;;;27.95;35.11;100243.94;130277;1259;115270;-64
2023/06/02 06:58:55;;;;;;;13.20;4.40;;;;;;;28.02;35.12;100248.33;130197;1278;114822;-68
2023/06/02 07:01:57;;;;;;;8.50;3.80;;;;;;;28.20;35.08;100247.12;130214;1254;117464;-69
2023/06/02 07:04:59;;;;;;;12.60;4.00;;;;;;;28.47;35.04;100249.17;129821;1259;114765;-69
2023/06/02 07:08:02;;;;;;;7.00;3.90;;;;;;;28.85;34.72;100251.04;130190;1258;115417;-67
2023/06/02 07:11:04;;;;;;;14.40;4.80;;;;;;;29.02;34.34;100254.00;129851;1258;114726;-64
2023/06/02 07:14:06;;;;;;;14.60;4.00;;;;;;;29.14;34.20;100261.10;130268;1273;114735;-64
2023/06/02 07:17:08;;;;;;;10.10;4.80;;;;;;;29.43;33.75;100262.75;130325;1259;115382;-65
2023/06/02 07:20:12;;;;;;;10.00;4.10;;;;;;;29.59;33.64;100267.61;130307;1255;114700;-64
2023/06/02 07:23:14;;;;;;;11.80;3.80;;;;;;;29.57;32.50;100274.05;130299;1270;114960;-64
2023/06/02 07:26:16;;;;;;;11.20;4.20;;;;;;;29.16;32.32;100274.32;130306;1254;114744;-63
2023/06/02 07:29:18;;;;;;;10.00;4.00;;;;;;;28.75;32.21;100273.04;130309;1258;114815;-62
2023/06/02 07:32:21;;;;;;;7.30;3.70;;;;;;;28.11;32.62;100275.67;130012;1277;114671;-62
2023/06/02 07:35:24;;;;;;;7.80;3.50;;;;;;;27.97;32.91;100274.72;129737;1270;114696;-65
2023/06/02 07:38:26;;;;;;;7.30;3.80;;;;;;;27.84;32.77;100274.77;129812;1270;114770;-64
2023/06/02 07:41:29;;;;;;;11.10;4.20;;;;;;;27.80;32.56;100279.20;130131;1270;114824;-67
2023/06/02 07:44:32;;;;;;;7.80;4.10;;;;;;;27.81;33.01;100277.81;130338;1261;115313;-65
2023/06/02 07:47:34;;;;;;;8.50;4.10;;;;;;;27.77;32.63;100273.44;130137;1260;115038;-64
2023/06/02 07:50:36;;;;;;;7.40;3.40;;;;;;;27.61;32.87;100274.77;130095;1270;115425;-63
2023/06/02 07:53:39;;;;;;;9.90;4.20;;;;;;;27.63;32.90;100277.43;130017;1267;114625;-67
2023/06/02 07:56:42;;;;;;;13.70;4.10;;;;;;;27.25;32.47;100281.50;130510;1259;114737;-63
2023/06/02 07:59:44;;;;;;;9.80;3.70;;;;;;;26.80;33.11;100273.93;130318;1257;114834;-65
2023/06/02 08:02:47;;;;;;;10.10;3.90;;;;;;;26.72;33.27;100274.86;130303;1261;114818;-66
2023/06/02 08:05:50;;;;;;;13.90;4.10;;;;;;;26.60;33.48;100278.06;130189;1261;114725;-63
2023/06/02 08:08:53;;;;;;;49.50;5.40;;;;;;;26.75;33.12;100277.15;129924;1274;115074;-64
2023/06/02 08:11:56;;;;;;;8.20;3.20;;;;;;;26.82;33.43;100278.27;130125;1278;115142;-67
2023/06/02 08:14:58;;;;;;;9.70;3.50;;;;;;;27.22;33.41;100275.91;130198;1269;114746;-65
2023/06/02 08:18:00;;;;;;;10.20;3.30;;;;;;;27.43;32.82;100277.14;130229;1259;114732;-66
2023/06/02 08:21:04;;;;;;;8.80;3.70;;;;;;;27.38;32.47;100283.67;130418;1260;114759;-66
2023/06/02 08:24:06;;;;;;;9.20;3.10;;;;;;;27.47;32.58;100282.33;130006;1273;116591;-65
2023/06/02 08:27:08;;;;;;;7.00;3.50;;;;;;;27.53;32.10;100281.91;130270;1258;114744;-64
2023/06/02 08:30:13;;;;;;;7.10;3.60;;;;;;;27.52;32.21;100285.31;130139;1262;114857;-64
2023/06/02 08:33:16;;;;;;;10.60;3.70;;;;;;;27.49;32.27;100289.95;130427;1254;115141;-64
2023/06/02 08:36:21;;;;;;;9.20;3.40;;;;;;;27.52;32.39;100290.92;130321;1261;114732;-62
2023/06/02 08:39:25;;;;;;;11.10;3.00;;;;;;;27.41;32.16;100291.94;130260;1254;114789;-61
2023/06/02 08:42:28;;;;;;;;;;;;;;;27.18;31.54;100295.11;129664;1258;115425;-62
2023/06/02 08:45:30;;;;;;;7.60;3.60;;;;;;;26.85;31.68;100293.69;129766;1261;114786;-63
2023/06/02 08:48:36;;;;;;;15.40;3.40;;;;;;;26.64;32.07;100295.20;130176;1258;115082;-62
2023/06/02 08:51:38;;;;;;;7.30;3.80;;;;;;;26.58;32.26;100295.95;130201;1255;120380;-63
2023/06/02 08:54:41;;;;;;;10.60;4.30;;;;;;;26.49;32.44;100299.70;129855;1256;114826;-63
2023/06/02 08:57:45;;;;;;;9.80;3.80;;;;;;;26.22;32.46;100302.13;130436;1254;115345;-63
2023/06/02 09:00:48;;;;;;;15.50;4.70;;;;;;;25.58;32.63;100300.25;130306;1270;114694;-63
2023/06/02 09:03:50;;;;;;;10.70;4.50;;;;;;;24.91;33.17;100307.62;130280;1258;114777;-62
2023/06/02 09:07:17;;;;;;;9.10;4.20;;;;;;;24.54;33.66;100309.23;130151;1270;114755;-62
2023/06/02 09:10:29;;;;;;;8.60;4.00;;;;;;;24.50;33.99;100304.66;130063;1271;116566;-62
2023/06/02 09:13:33;;;;;;;7.80;4.10;;;;;;;24.64;34.26;100302.36;130320;1271;114719;-64
2023/06/02 09:16:37;;;;;;;10.80;3.70;;;;;;;24.80;33.97;100299.02;130195;1260;115412;-61
2023/06/02 09:19:50;;;;;;;7.70;3.10;;;;;;;25.07;34.01;100300.95;129982;1273;114694;-61
2023/06/02 09:23:01;;;;;;;11.70;3.70;;;;;;;25.07;33.00;100303.38;129747;1272;129772;-61
2023/06/02 09:26:04;;;;;;;6.50;3.10;;;;;;;24.69;33.36;100301.30;129593;1276;115248;-62
2023/06/02 09:29:12;;;;;;;6.90;2.70;;;;;;;24.62;33.50;100305.91;129728;1260;114883;-62
2023/06/02 09:32:16;;;;;;;10.60;3.10;;;;;;;24.40;33.17;100310.78;129688;1260;114921;-63
2023/06/02 09:35:40;;;;;;;7.10;2.50;;;;;;;24.06;33.29;100311.81;129912;1271;114742;-63
2023/06/02 09:38:43;;;;;;;8.50;3.20;;;;;;;23.87;34.03;100312.21;130024;1261;128401;-63
2023/06/02 09:41:45;;;;;;;9.00;2.70;;;;;;;23.96;34.28;100317.67;130402;1255;114961;-63
2023/06/02 09:45:04;;;;;;;9.00;2.90;;;;;;;23.91;33.91;100316.29;129637;1274;114724;-63
2023/06/02 09:48:22;;;;;;;8.60;3.20;;;;;;;23.84;34.41;100314.15;130259;1254;114717;-64
2023/06/02 09:51:25;;;;;;;5.80;2.60;;;;;;;24.06;34.79;100310.63;129741;1274;114724;-66
2023/06/02 09:54:27;;;;;;;10.50;3.00;;;;;;;24.18;34.25;100317.02;130103;1273;114808;-62
2023/06/02 09:57:30;;;;;;;9.50;2.80;;;;;;;24.02;34.61;100321.11;130102;1258;114783;-62
2023/06/02 10:00:35;;;;;;;10.70;3.00;;;;;;;23.90;34.52;100323.57;130399;1258;114727;-61
2023/06/02 10:03:38;;;;;;;;;;;;;;;23.56;34.71;100330.15;130037;1258;114737;-62
2023/06/02 10:06:43;;;;;;;9.20;3.20;;;;;;;23.18;35.22;100335.00;129844;1270;114785;-62
2023/06/02 10:10:08;;;;;;;7.90;2.50;;;;;;;22.88;35.39;100345.30;130136;1254;128848;-62
2023/06/02 10:13:33;;;;;;;9.40;3.30;;;;;;;22.42;35.70;100345.25;130117;1254;114701;-62
2023/06/02 10:16:44;;;;;;;8.90;3.10;;;;;;;22.05;36.31;100346.91;129910;1260;114790;-64
2023/06/02 10:19:46;;;;;;;11.00;3.40;;;;;;;21.78;36.99;100344.97;130061;1259;114838;-63
2023/06/02 10:23:17;;;;;;;11.70;3.10;;;;;;;21.67;37.36;100344.73;130136;1256;115154;-62
2023/06/02 10:26:19;;;;;;;10.00;3.50;;;;;;;21.68;37.73;100343.74;129611;1277;129618;-61
2023/06/02 10:29:24;;;;;;;7.80;3.30;;;;;;;21.66;38.20;100344.95;129854;1258;114707;-62
2023/06/02 10:32:33;;;;;;;9.60;3.90;;;;;;;21.58;38.50;100352.98;130159;1258;114785;-62
2023/06/02 10:36:01;;;;;;;7.60;3.10;;;;;;;21.31;38.55;100349.88;130238;1258;114799;-63
2023/06/02 10:39:50;;;;;;;13.20;3.70;;;;;;;21.05;39.21;100349.41;129898;1258;114733;-63
2023/06/02 10:43:22;;;;;;;7.50;2.80;;;;;;;20.97;39.38;100353.59;129469;1263;128080;-63
2023/06/02 10:46:25;;;;;;;6.50;3.40;;;;;;;20.93;39.33;100352.53;129739;1265;116351;-63
2023/06/02 10:49:52;;;;;;;6.50;3.20;;;;;;;20.88;39.54;100348.77;129854;1259;114789;-65
2023/06/02 10:53:00;;;;;;;10.90;3.50;;;;;;;20.89;39.69;100347.63;129176;1268;114809;-64
2023/06/02 10:56:42;;;;;;;9.80;2.80;;;;;;;20.94;39.93;100350.90;129652;1265;115005;-65
2023/06/02 10:59:45;;;;;;;6.90;3.70;;;;;;;21.04;40.21;100347.71;129459;1267;128856;-65
2023/06/02 11:02:47;;;;;;;7.10;3.40;;;;;;;21.00;40.16;100345.45;129783;1259;115936;-64
2023/06/02 11:05:50;;;;;;;6.80;3.20;;;;;;;20.92;40.45;100346.97;129914;1259;114923;-68
2023/06/02 11:08:53;;;;;;;9.50;3.30;;;;;;;20.91;40.69;100350.90;129894;1281;114725;-65
2023/06/02 11:11:55;;;;;;;6.40;3.70;;;;;;;20.88;40.64;100350.64;129694;1283;114840;-64
2023/06/02 11:15:01;;;;;;;10.00;4.70;;;;;;;20.74;40.41;100354.98;129807;1283;114859;-65
2023/06/02 11:18:22;;;;;;;8.70;3.90;;;;;;;20.61;40.61;100357.02;129870;1265;128089;-65
2023/06/02 11:21:24;;;;;;;9.90;3.70;;;;;;;20.51;40.99;100365.34;129874;1259;115327;-65
2023/06/02 11:24:26;;;;;;;7.10;3.30;;;;;;;20.32;40.90;100360.15;130281;1258;114812;-64
2023/06/02 11:27:56;;;;;;;6.70;3.90;;;;;;;20.24;41.53;100364.87;130307;1258;114729;-65
2023/06/02 11:31:18;;;;;;;11.30;3.80;;;;;;;20.28;42.08;100366.13;129408;1266;114879;-64
2023/06/02 11:34:20;;;;;;;8.20;3.70;;;;;;;20.38;42.41;100378.66;129366;1284;114841;-64
2023/06/02 11:37:23;;;;;;;7.30;3.20;;;;;;;20.41;42.52;100376.59;129311;1284;114889;-64
2023/06/02 11:40:28;;;;;;;11.50;3.50;;;;;;;20.41;42.60;100379.52;129251;1276;114818;-64
2023/06/02 11:43:31;;;;;;;8.00;3.80;;;;;;;20.44;42.82;100379.95;129209;1262;114950;-64
2023/06/02 11:46:33;;;;;;;7.00;3.80;;;;;;;20.43;43.05;100382.59;129363;1260;114889;-63
2023/06/02 11:49:37;;;;;;;10.10;4.10;;;;;;;20.33;43.23;100396.35;129453;1284;114871;-64
2023/06/02 11:52:40;;;;;;;6.10;3.70;;;;;;;20.22;43.43;100393.33;129387;1284;114949;-63
2023/06/02 11:55:43;;;;;;;6.70;4.20;;;;;;;20.19;43.51;100402.27;129233;1265;114780;-64
2023/06/02 11:58:48;;;;;;;10.00;4.10;;;;;;;20.15;43.67;100409.59;129245;1265;116364;-63
2023/06/02 12:01:52;;;;;;;8.30;4.60;;;;;;;19.98;43.77;100412.48;129632;1262;114918;-65
2023/06/02 12:04:54;;;;;;;15.30;5.20;;;;;;;19.86;44.12;100414.20;129333;1265;114882;-63
2023/06/02 12:08:06;;;;;;;8.90;4.00;;;;;;;19.84;44.24;100413.81;129467;1279;114902;-64
2023/06/02 12:11:21;;;;;;;6.80;4.00;;;;;;;19.80;44.65;100417.08;129831;1264;114997;-64
2023/06/02 12:14:23;;;;;;;19.00;5.40;;;;;;;19.74;44.93;100423.27;129691;1259;114810;-63
2023/06/02 12:17:25;;;;;;;7.00;3.90;;;;;;;19.63;44.81;100423.79;129584;1261;114750;-64
2023/06/02 12:20:38;;;;;;;6.50;4.00;;;;;;;19.48;44.99;100426.72;129601;1279;115180;-63
2023/06/02 12:23:45;;;;;;;7.10;3.50;;;;;;;19.47;45.28;100423.52;129563;1279;128657;-65
2023/06/02 12:26:47;;;;;;;17.50;4.70;;;;;;;19.59;45.58;100423.77;129622;1259;116393;-63
2023/06/02 12:29:49;;;;;;;8.10;3.40;;;;;;;19.73;45.45;100424.20;129604;1261;114806;-63
2023/06/02 12:32:52;;;;;;;6.30;3.40;;;;;;;19.70;45.18;100421.36;129740;1255;114734;-63
2023/06/02 12:35:55;;;;;;;4.80;3.10;;;;;;;19.70;45.26;100422.84;129661;1261;114768;-63
2023/06/02 12:38:59;;;;;;;3.50;2.60;;;;;;;19.65;45.41;100425.46;129573;1279;114683;-63
2023/06/02 12:42:02;;;;;;;3.90;2.90;;;;;;;19.59;45.43;100422.14;129577;1279;130032;-63
2023/06/02 12:45:05;;;;;;;4.10;2.50;;;;;;;19.58;45.30;100421.66;129558;1279;114723;-64
2023/06/02 12:48:11;;;;;;;4.80;2.40;;;;;;;19.55;45.56;100422.79;129613;1271;114733;-63
2023/06/02 12:51:15;;;;;;;4.20;2.50;;;;;;;19.51;45.76;100429.02;129708;1279;115241;-63
2023/06/02 12:54:17;;;;;;;18.40;3.00;;;;;;;19.53;45.71;100429.02;129884;1254;114826;-63
2023/06/02 12:57:21;;;;;;;6.40;3.00;;;;;;;19.49;45.75;100438.41;129801;1258;115175;-63
2023/06/02 13:00:24;;;;;;;5.30;2.20;;;;;;;19.38;45.67;100435.66;129760;1277;114790;-63
2023/06/02 13:03:27;;;;;;;8.10;2.50;;;;;;;19.30;45.54;100442.87;129986;1273;114701;-63
2023/06/02 13:06:30;;;;;;;4.00;2.30;;;;;;;19.23;45.49;100441.31;130043;1258;115244;-64
2023/06/02 13:09:32;;;;;;;7.20;2.40;;;;;;;19.18;45.44;100442.83;130016;1258;114740;-63
2023/06/02 13:12:36;;;;;;;5.80;2.40;;;;;;;19.17;45.68;100441.46;129856;1273;115308;-64
2023/06/02 13:15:38;;;;;;;5.60;2.80;;;;;;;19.18;45.56;100449.48;129797;1271;128816;-64
2023/06/02 13:18:42;;;;;;;5.10;3.00;;;;;;;19.18;45.50;100447.54;129876;1278;114686;-65
2023/06/02 13:21:45;;;;;;;4.60;3.20;;;;;;;19.15;45.53;100448.11;130077;1260;114796;-64
2023/06/02 13:24:48;;;;;;;5.30;2.80;;;;;;;19.21;45.71;100448.33;129820;1260;115407;-64
2023/06/02 13:27:50;;;;;;;4.00;3.10;;;;;;;19.34;45.87;100451.95;130201;1261;115049;-65
2023/06/02 13:30:53;;;;;;;5.80;2.80;;;;;;;19.43;45.39;100455.73;130020;1278;114808;-64
2023/06/02 13:33:55;;;;;;;6.70;3.00;;;;;;;19.47;45.44;100457.42;129841;1260;129043;-63
2023/06/02 13:36:58;;;;;;;5.60;3.40;;;;;;;19.56;45.31;100457.70;129733;1262;114720;-62
2023/06/02 13:40:00;;;;;;;4.40;3.70;;;;;;;19.66;44.53;100458.91;129758;1261;115235;-63
2023/06/02 13:43:03;;;;;;;9.30;3.00;;;;;;;19.75;44.36;100453.07;129875;1260;114742;-63
2023/06/02 13:46:05;;;;;;;5.10;3.10;;;;;;;19.81;43.71;100453.98;129740;1274;115156;-63
2023/06/02 13:49:07;;;;;;;8.80;3.40;;;;;;;19.73;43.49;100461.49;129734;1278;115305;-63